createdAt,value
2019-03-20T00:00:12.494Z,70.29
2019-03-20T00:00:51.232Z,69.77
2019-03-20T00:01:27.339Z,69.77
2019-03-20T00:02:03.340Z,70.39
2019-03-20T00:02:39.230Z,70.39
2019-03-20T00:03:15.214Z,70.39
2019-03-20T00:03:51.338Z,70.35
2019-03-20T00:04:27.362Z,70.35
2019-03-20T00:05:03.380Z,69.92
2019-03-20T00:05:39.296Z,70.28
2019-03-20T00:06:15.341Z,70.26
2019-03-20T00:06:51.401Z,70.26
2019-03-20T00:07:27.287Z,70.41
2019-03-20T00:08:03.270Z,70.41
2019-03-20T00:08:39.179Z,70.38
2019-03-20T00:09:15.412Z,70.38
2019-03-20T00:09:51.268Z,69.87
2019-03-20T00:10:27.596Z,69.43
2019-03-20T00:11:03.621Z,69.43
2019-03-20T00:11:39.537Z,69.82
2019-03-20T00:12:15.484Z,69.47
2019-03-20T00:12:51.375Z,69.47
2019-03-20T00:13:27.317Z,69.05
2019-03-20T00:14:03.199Z,69.59
2019-03-20T00:14:39.127Z,70.18
2019-03-20T00:15:15.252Z,69.44
2019-03-20T00:15:51.166Z,69.86
2019-03-20T00:16:27.123Z,69.86
2019-03-20T00:17:04.092Z,69.58
2019-03-20T00:17:40.078Z,69.52
2019-03-20T00:18:16.093Z,69.43
2019-03-20T00:18:51.972Z,69.37
2019-03-20T00:19:28.051Z,69.22
2019-03-20T00:20:03.938Z,68.69
2019-03-20T00:20:39.807Z,69.41
2019-03-20T00:21:16.080Z,69.41
2019-03-20T00:21:52.008Z,68.72
2019-03-20T00:22:27.972Z,68.96
2019-03-20T00:23:04.027Z,68.96
2019-03-20T00:23:40.005Z,68.58
2019-03-20T00:24:15.951Z,68.58
2019-03-20T00:24:51.995Z,68.88
2019-03-20T00:25:27.910Z,68.51
2019-03-20T00:26:03.967Z,68.51
2019-03-20T00:26:39.827Z,68.81
2019-03-20T00:27:15.708Z,68.76
2019-03-20T00:27:51.585Z,69.01
2019-03-20T00:28:27.462Z,68.71
2019-03-20T00:29:03.379Z,68.27
2019-03-20T00:29:39.247Z,68.52
2019-03-20T00:30:15.306Z,68.47
2019-03-20T00:30:51.205Z,68.43
2019-03-20T00:31:27.074Z,68.42
2019-03-20T00:32:02.945Z,68.40
2019-03-20T00:32:38.823Z,68.36
2019-03-20T00:33:14.719Z,68.31
2019-03-20T00:33:50.696Z,68.27
2019-03-20T00:34:26.687Z,68.22
2019-03-20T00:35:02.632Z,68.16
2019-03-20T00:35:38.566Z,68.09
2019-03-20T00:36:14.611Z,68.05
2019-03-20T00:36:50.527Z,68.67
2019-03-20T00:37:26.399Z,68.67
2019-03-20T00:38:02.274Z,67.89
2019-03-20T00:38:38.268Z,67.80
2019-03-20T00:39:14.132Z,67.75
2019-03-20T00:39:50.139Z,67.70
2019-03-20T00:40:26.013Z,67.63
2019-03-20T00:41:01.951Z,67.56
2019-03-20T00:41:37.952Z,67.48
2019-03-20T00:42:13.870Z,67.45
2019-03-20T00:42:49.779Z,67.40
2019-03-20T00:43:25.657Z,67.36
2019-03-20T00:44:01.856Z,67.23
2019-03-20T00:44:37.701Z,67.23
2019-03-20T00:45:14.064Z,67.23
2019-03-20T00:45:49.962Z,67.17
2019-03-20T00:46:25.858Z,67.17
2019-03-20T00:47:01.863Z,67.20
2019-03-20T00:47:37.846Z,67.20
2019-03-20T00:48:13.840Z,67.25
2019-03-20T00:48:49.775Z,67.27
2019-03-20T00:49:25.662Z,67.29
2019-03-20T00:50:01.529Z,67.25
2019-03-20T00:50:37.463Z,67.26
2019-03-20T00:51:13.500Z,67.29
2019-03-20T00:51:49.398Z,67.20
2019-03-20T00:52:25.274Z,67.27
2019-03-20T00:53:01.107Z,67.29
2019-03-20T00:53:36.986Z,67.25
2019-03-20T00:54:12.895Z,67.26
2019-03-20T00:54:48.879Z,67.25
2019-03-20T00:55:24.970Z,67.25
2019-03-20T00:56:00.991Z,67.25
2019-03-20T00:56:36.896Z,67.23
2019-03-20T00:57:12.860Z,67.20
2019-03-20T00:57:49.262Z,67.17
2019-03-20T00:58:25.231Z,67.11
2019-03-20T00:59:01.107Z,67.03
2019-03-20T00:59:37.090Z,66.98
2019-03-20T01:00:15.580Z,66.93
2019-03-20T01:00:51.543Z,66.90
2019-03-20T01:01:27.408Z,66.87
2019-03-20T01:02:03.316Z,66.88
2019-03-20T01:02:39.231Z,67.06
2019-03-20T01:03:15.170Z,67.20
2019-03-20T01:03:51.099Z,67.23
2019-03-20T01:04:27.007Z,67.27
2019-03-20T01:05:12.203Z,67.30
2019-03-20T01:05:40.727Z,67.35
2019-03-20T01:06:16.622Z,67.43
2019-03-20T01:06:52.560Z,67.58
2019-03-20T01:07:28.449Z,67.53
2019-03-20T01:08:04.359Z,67.55
2019-03-20T01:08:40.392Z,67.59
2019-03-20T01:09:16.291Z,67.63
2019-03-20T01:09:52.338Z,67.71
2019-03-20T01:10:28.225Z,67.65
2019-03-20T01:11:04.083Z,67.67
2019-03-20T01:11:39.999Z,67.69
2019-03-20T01:12:17.728Z,67.69
2019-03-20T01:12:53.658Z,67.66
2019-03-20T01:13:29.669Z,67.58
2019-03-20T01:14:05.526Z,67.58
2019-03-20T01:14:41.439Z,67.55
2019-03-20T01:15:17.814Z,67.57
2019-03-20T01:15:53.794Z,67.53
2019-03-20T01:16:29.634Z,67.51
2019-03-20T01:17:05.538Z,67.48
2019-03-20T01:17:41.490Z,67.43
2019-03-20T01:18:17.373Z,67.31
2019-03-20T01:18:53.203Z,67.21
2019-03-20T01:19:29.067Z,67.21
2019-03-20T01:20:04.994Z,67.14
2019-03-20T01:20:40.868Z,67.05
2019-03-20T01:21:16.925Z,67.06
2019-03-20T01:21:52.988Z,67.05
2019-03-20T01:22:28.894Z,67.11
2019-03-20T01:23:04.933Z,67.09
2019-03-20T01:23:40.839Z,67.08
2019-03-20T01:24:16.765Z,67.07
2019-03-20T01:24:52.630Z,67.06
2019-03-20T01:25:28.459Z,67.03
2019-03-20T01:26:04.353Z,66.84
2019-03-20T01:26:40.412Z,66.53
2019-03-20T01:27:16.275Z,66.41
2019-03-20T01:27:52.281Z,66.33
2019-03-20T01:28:28.160Z,66.22
2019-03-20T01:29:04.027Z,66.13
2019-03-20T01:29:39.974Z,66.12
2019-03-20T01:30:32.158Z,66.07
2019-03-20T01:31:08.020Z,65.90
2019-03-20T01:31:43.912Z,65.82
2019-03-20T01:32:19.825Z,65.73
2019-03-20T01:32:55.668Z,65.71
2019-03-20T01:33:31.593Z,65.66
2019-03-20T01:34:07.462Z,65.69
2019-03-20T01:34:43.337Z,65.63
2019-03-20T01:35:23.814Z,65.57
2019-03-20T01:35:56.942Z,65.45
2019-03-20T01:36:32.865Z,65.29
2019-03-20T01:37:08.722Z,65.00
2019-03-20T01:37:44.708Z,64.78
2019-03-20T01:38:20.611Z,64.69
2019-03-20T01:38:56.413Z,64.55
2019-03-20T01:39:32.302Z,64.44
2019-03-20T01:40:08.160Z,64.35
2019-03-20T01:40:44.095Z,64.27
2019-03-20T01:41:20.082Z,64.22
2019-03-20T01:41:55.958Z,64.04
2019-03-20T01:42:31.781Z,63.86
2019-03-20T01:43:08.057Z,63.80
2019-03-20T01:43:43.932Z,63.55
2019-03-20T01:44:19.803Z,63.43
2019-03-20T01:44:55.838Z,63.27
2019-03-20T01:45:31.715Z,63.19
2019-03-20T01:46:07.715Z,63.13
2019-03-20T01:46:43.623Z,63.04
2019-03-20T01:47:19.495Z,62.94
2019-03-20T01:47:55.394Z,62.80
2019-03-20T01:48:31.397Z,62.66
2019-03-20T01:49:07.210Z,62.57
2019-03-20T01:49:43.197Z,62.39
2019-03-20T01:50:19.128Z,61.97
2019-03-20T01:50:55.041Z,61.79
2019-03-20T01:51:30.934Z,61.68
2019-03-20T01:52:06.838Z,61.69
2019-03-20T01:52:42.737Z,61.54
2019-03-20T01:53:18.601Z,61.48
2019-03-20T01:53:54.492Z,61.47
2019-03-20T01:54:30.420Z,61.38
2019-03-20T01:55:06.415Z,61.37
2019-03-20T01:55:42.260Z,61.26
2019-03-20T01:56:18.201Z,61.50
2019-03-20T01:56:54.096Z,61.54
2019-03-20T01:57:29.951Z,61.58
2019-03-20T01:58:05.838Z,61.47
2019-03-20T01:58:41.731Z,61.53
2019-03-20T01:59:17.605Z,61.50
2019-03-20T01:59:53.506Z,61.49
2019-03-20T02:00:29.384Z,61.50
2019-03-20T02:01:05.255Z,61.43
2019-03-20T02:01:41.114Z,61.41
2019-03-20T02:02:17.088Z,61.41
2019-03-20T02:02:53.028Z,61.45
2019-03-20T02:03:28.948Z,61.44
2019-03-20T02:04:04.926Z,61.39
2019-03-20T02:04:40.750Z,61.40
2019-03-20T02:05:16.784Z,61.47
2019-03-20T02:05:52.748Z,61.51
2019-03-20T02:06:28.638Z,61.73
2019-03-20T02:07:04.475Z,61.94
2019-03-20T02:07:40.350Z,61.98
2019-03-20T02:08:16.309Z,62.04
2019-03-20T02:08:52.207Z,62.04
2019-03-20T02:09:28.072Z,62.11
2019-03-20T02:10:04.002Z,62.12
2019-03-20T02:10:40.018Z,62.14
2019-03-20T02:11:16.058Z,61.74
2019-03-20T02:11:51.926Z,61.75
2019-03-20T02:12:27.938Z,62.01
2019-03-20T02:13:03.990Z,62.07
2019-03-20T02:13:40.173Z,62.20
2019-03-20T02:14:16.079Z,62.23
2019-03-20T02:14:52.263Z,62.17
2019-03-20T02:15:38.147Z,62.23
2019-03-20T02:16:06.012Z,62.34
2019-03-20T02:16:42.107Z,62.43
2019-03-20T02:17:18.129Z,62.74
2019-03-20T02:17:55.952Z,62.82
2019-03-20T02:18:35.335Z,62.77
2019-03-20T02:19:11.432Z,62.78
2019-03-20T02:19:47.331Z,62.72
2019-03-20T02:20:24.628Z,62.59
2019-03-20T02:21:01.356Z,62.43
2019-03-20T02:21:40.402Z,62.48
2019-03-20T02:22:16.489Z,62.30
2019-03-20T02:22:53.905Z,61.66
2019-03-20T02:23:29.794Z,61.17
2019-03-20T02:24:05.857Z,60.93
2019-03-20T02:24:41.877Z,60.78
2019-03-20T02:25:17.947Z,60.53
2019-03-20T02:25:53.826Z,60.18
2019-03-20T02:26:29.643Z,60.17
2019-03-20T02:27:05.671Z,59.82
2019-03-20T02:27:41.579Z,59.90
2019-03-20T02:28:17.594Z,59.87
2019-03-20T02:28:53.516Z,59.71
2019-03-20T02:29:29.373Z,59.53
2019-03-20T02:30:05.616Z,59.40
2019-03-20T02:30:41.723Z,59.38
2019-03-20T02:31:17.663Z,59.51
2019-03-20T02:31:53.658Z,59.60
2019-03-20T02:32:29.572Z,59.72
2019-03-20T02:33:05.566Z,59.60
2019-03-20T02:33:41.512Z,59.57
2019-03-20T02:34:17.399Z,59.46
2019-03-20T02:34:53.441Z,59.36
2019-03-20T02:35:29.360Z,59.18
2019-03-20T02:36:05.247Z,58.95
2019-03-20T02:36:41.125Z,58.71
2019-03-20T02:37:17.013Z,58.56
2019-03-20T02:37:55.699Z,58.01
2019-03-20T02:38:31.584Z,57.59
2019-03-20T02:39:09.032Z,57.36
2019-03-20T02:39:44.862Z,57.13
2019-03-20T02:40:20.795Z,56.89
2019-03-20T02:40:56.633Z,56.63
2019-03-20T02:41:32.525Z,56.20
2019-03-20T02:42:08.457Z,55.88
2019-03-20T02:42:44.341Z,55.64
2019-03-20T02:43:20.212Z,55.47
2019-03-20T02:43:56.384Z,55.36
2019-03-20T02:44:32.515Z,55.07
2019-03-20T02:45:10.031Z,54.84
2019-03-20T02:45:46.233Z,54.73
2019-03-20T02:46:22.161Z,54.57
2019-03-20T02:46:58.191Z,54.44
2019-03-20T02:47:34.169Z,54.19
2019-03-20T02:48:10.007Z,54.24
2019-03-20T02:48:45.831Z,54.38
2019-03-20T02:49:21.737Z,54.66
2019-03-20T02:49:57.612Z,54.74
2019-03-20T02:50:33.609Z,54.94
2019-03-20T02:51:09.573Z,55.21
2019-03-20T02:51:45.455Z,55.34
2019-03-20T02:52:21.257Z,55.57
2019-03-20T02:52:57.173Z,55.68
2019-03-20T02:53:33.031Z,55.75
2019-03-20T02:54:09.068Z,55.57
2019-03-20T02:54:44.943Z,55.38
2019-03-20T02:55:20.877Z,55.14
2019-03-20T02:55:56.724Z,55.05
2019-03-20T02:56:32.622Z,55.20
2019-03-20T02:57:08.699Z,55.28
2019-03-20T02:57:44.596Z,55.28
2019-03-20T02:58:20.480Z,55.37
2019-03-20T02:58:56.379Z,55.24
2019-03-20T02:59:32.271Z,55.20
2019-03-20T03:00:10.307Z,55.28
2019-03-20T03:00:46.433Z,55.16
2019-03-20T03:01:22.467Z,55.09
2019-03-20T03:01:58.511Z,55.05
2019-03-20T03:02:34.726Z,54.97
2019-03-20T03:03:10.713Z,54.97
2019-03-20T03:03:46.661Z,55.00
2019-03-20T03:04:22.609Z,55.03
2019-03-20T03:04:58.496Z,54.96
2019-03-20T03:05:34.583Z,54.90
2019-03-20T03:06:10.452Z,54.74
2019-03-20T03:06:46.321Z,54.35
2019-03-20T03:07:22.203Z,54.18
2019-03-20T03:07:58.117Z,53.94
2019-03-20T03:08:34.125Z,53.60
2019-03-20T03:09:10.771Z,53.52
2019-03-20T03:09:46.623Z,53.58
2019-03-20T03:10:22.566Z,53.57
2019-03-20T03:10:58.427Z,53.79
2019-03-20T03:11:34.298Z,54.20
2019-03-20T03:12:10.161Z,54.42
2019-03-20T03:12:46.022Z,54.62
2019-03-20T03:13:21.938Z,54.63
2019-03-20T03:13:57.808Z,54.78
2019-03-20T03:14:33.878Z,54.86
2019-03-20T03:15:10.032Z,54.83
2019-03-20T03:15:45.905Z,54.68
2019-03-20T03:16:22.094Z,54.74
2019-03-20T03:16:58.216Z,54.77
2019-03-20T03:17:34.181Z,54.80
2019-03-20T03:18:10.119Z,55.04
2019-03-20T03:18:45.960Z,54.88
2019-03-20T03:19:21.913Z,54.77
2019-03-20T03:19:57.882Z,54.66
2019-03-20T03:20:33.899Z,54.89
2019-03-20T03:21:09.737Z,55.20
2019-03-20T03:21:45.629Z,55.56
2019-03-20T03:22:21.562Z,55.63
2019-03-20T03:22:57.512Z,55.62
2019-03-20T03:23:33.536Z,55.58
2019-03-20T03:24:09.438Z,55.40
2019-03-20T03:24:45.383Z,55.18
2019-03-20T03:25:21.232Z,55.21
2019-03-20T03:25:57.219Z,55.07
2019-03-20T03:26:33.221Z,54.94
2019-03-20T03:27:09.121Z,54.71
2019-03-20T03:27:45.186Z,54.93
2019-03-20T03:28:21.151Z,54.99
2019-03-20T03:28:57.050Z,55.16
2019-03-20T03:29:32.901Z,55.42
2019-03-20T03:30:09.402Z,55.74
2019-03-20T03:30:45.390Z,56.11
2019-03-20T03:31:21.319Z,56.43
2019-03-20T03:31:57.211Z,56.81
2019-03-20T03:32:33.243Z,56.90
2019-03-20T03:33:09.105Z,57.17
2019-03-20T03:33:45.004Z,57.20
2019-03-20T03:34:20.859Z,57.31
2019-03-20T03:34:56.742Z,57.48
2019-03-20T03:35:32.751Z,57.55
2019-03-20T03:36:20.638Z,57.56
2019-03-20T03:36:46.347Z,57.72
2019-03-20T03:37:22.257Z,57.84
2019-03-20T03:37:58.244Z,58.08
2019-03-20T03:38:34.281Z,58.23
2019-03-20T03:39:10.607Z,58.41
2019-03-20T03:39:46.506Z,58.27
2019-03-20T03:40:22.418Z,58.24
2019-03-20T03:40:58.292Z,58.31
2019-03-20T03:41:34.213Z,58.29
2019-03-20T03:42:10.143Z,58.14
2019-03-20T03:42:46.009Z,57.82
2019-03-20T03:43:24.273Z,57.71
2019-03-20T03:43:59.581Z,57.42
2019-03-20T03:44:35.445Z,57.25
2019-03-20T03:45:12.642Z,56.97
2019-03-20T03:45:48.623Z,56.56
2019-03-20T03:46:24.595Z,56.21
2019-03-20T03:47:00.428Z,56.08
2019-03-20T03:47:36.486Z,56.09
2019-03-20T03:48:12.441Z,55.98
2019-03-20T03:48:48.350Z,55.98
2019-03-20T03:49:24.193Z,55.82
2019-03-20T03:50:00.532Z,55.58
2019-03-20T03:50:36.530Z,55.57
2019-03-20T03:51:12.485Z,55.88
2019-03-20T03:51:48.388Z,55.98
2019-03-20T03:52:24.613Z,55.97
2019-03-20T03:53:00.492Z,56.01
2019-03-20T03:53:36.383Z,56.04
2019-03-20T03:54:12.277Z,56.28
2019-03-20T03:54:48.170Z,56.20
2019-03-20T03:55:24.012Z,56.04
2019-03-20T03:55:59.878Z,55.92
2019-03-20T03:56:35.769Z,55.85
2019-03-20T03:57:11.963Z,55.81
2019-03-20T03:57:48.218Z,55.53
2019-03-20T03:58:24.223Z,55.35
2019-03-20T03:59:00.144Z,55.38
2019-03-20T03:59:36.104Z,55.24
2019-03-20T04:00:13.454Z,54.95
2019-03-20T04:00:49.357Z,54.87
2019-03-20T04:01:25.214Z,54.75
2019-03-20T04:02:01.166Z,54.72
2019-03-20T04:02:37.039Z,54.69
2019-03-20T04:03:13.050Z,54.38
2019-03-20T04:03:49.294Z,54.19
2019-03-20T04:04:25.457Z,53.84
2019-03-20T04:05:01.478Z,53.54
2019-03-20T04:05:37.530Z,53.42
2019-03-20T04:06:13.580Z,53.43
2019-03-20T04:06:49.503Z,53.21
2019-03-20T04:07:25.463Z,52.93
2019-03-20T04:08:01.335Z,52.90
2019-03-20T04:08:37.268Z,52.83
2019-03-20T04:09:13.166Z,52.88
2019-03-20T04:09:49.170Z,52.95
2019-03-20T04:10:25.046Z,52.99
2019-03-20T04:11:01.048Z,52.94
2019-03-20T04:11:36.997Z,52.99
2019-03-20T04:12:13.104Z,53.23
2019-03-20T04:12:49.153Z,53.22
2019-03-20T04:13:25.395Z,53.31
2019-03-20T04:14:01.513Z,53.13
2019-03-20T04:14:37.529Z,52.91
2019-03-20T04:15:14.142Z,52.92
2019-03-20T04:15:50.310Z,52.92
2019-03-20T04:16:26.224Z,53.02
2019-03-20T04:17:02.097Z,52.94
2019-03-20T04:17:38.036Z,52.81
2019-03-20T04:18:13.969Z,52.62
2019-03-20T04:18:49.805Z,52.63
2019-03-20T04:19:25.652Z,52.70
2019-03-20T04:20:01.553Z,52.60
2019-03-20T04:20:37.560Z,52.36
2019-03-20T04:21:13.375Z,52.05
2019-03-20T04:21:49.264Z,52.04
2019-03-20T04:22:25.292Z,51.89
2019-03-20T04:23:01.252Z,51.74
2019-03-20T04:23:37.140Z,51.74
2019-03-20T04:24:13.016Z,51.48
2019-03-20T04:24:48.903Z,51.49
2019-03-20T04:25:24.741Z,51.48
2019-03-20T04:26:00.626Z,51.73
2019-03-20T04:26:36.508Z,51.81
2019-03-20T04:27:12.492Z,51.97
2019-03-20T04:27:48.450Z,52.10
2019-03-20T04:28:24.323Z,52.32
2019-03-20T04:29:00.235Z,52.46
2019-03-20T04:29:36.146Z,52.64
2019-03-20T04:30:12.589Z,52.74
2019-03-20T04:30:48.625Z,52.79
2019-03-20T04:31:24.498Z,52.89
2019-03-20T04:32:00.350Z,53.07
2019-03-20T04:32:36.256Z,53.18
2019-03-20T04:33:12.117Z,53.30
2019-03-20T04:33:47.986Z,53.46
2019-03-20T04:34:23.895Z,53.54
2019-03-20T04:34:59.851Z,53.62
2019-03-20T04:35:35.688Z,53.67
2019-03-20T04:36:11.592Z,53.75
2019-03-20T04:36:48.344Z,53.83
2019-03-20T04:37:24.296Z,53.95
2019-03-20T04:38:00.195Z,54.17
2019-03-20T04:38:36.037Z,54.21
2019-03-20T04:39:12.030Z,54.30
2019-03-20T04:39:47.919Z,54.42
2019-03-20T04:40:24.054Z,54.48
2019-03-20T04:40:59.925Z,54.56
2019-03-20T04:41:35.970Z,54.49
2019-03-20T04:42:11.892Z,54.58
2019-03-20T04:42:47.736Z,54.73
2019-03-20T04:43:23.631Z,54.82
2019-03-20T04:43:59.579Z,54.97
2019-03-20T04:44:35.725Z,55.26
2019-03-20T04:45:12.799Z,55.41
2019-03-20T04:45:48.767Z,55.39
2019-03-20T04:46:24.663Z,55.55
2019-03-20T04:47:00.454Z,55.62
2019-03-20T04:47:36.324Z,55.74
2019-03-20T04:48:12.272Z,55.95
2019-03-20T04:48:48.242Z,56.16
2019-03-20T04:49:24.224Z,56.25
2019-03-20T04:50:00.093Z,56.28
2019-03-20T04:50:35.967Z,56.64
2019-03-20T04:51:11.913Z,56.66
2019-03-20T04:51:47.786Z,56.88
2019-03-20T04:52:23.744Z,56.92
2019-03-20T04:52:59.674Z,57.13
2019-03-20T04:53:35.553Z,57.26
2019-03-20T04:54:11.459Z,57.56
2019-03-20T04:54:47.260Z,57.65
2019-03-20T04:55:23.126Z,57.87
2019-03-20T04:55:59.036Z,58.13
2019-03-20T04:56:34.910Z,58.38
2019-03-20T04:57:10.899Z,58.52
2019-03-20T04:57:46.751Z,58.74
2019-03-20T04:58:22.738Z,58.80
2019-03-20T04:58:58.619Z,58.94
2019-03-20T04:59:34.529Z,59.07
2019-03-20T05:00:12.736Z,59.15
2019-03-20T05:00:48.623Z,60.12
2019-03-20T05:01:24.520Z,60.33
2019-03-20T05:02:00.540Z,62.00
2019-03-20T05:02:36.429Z,61.89
2019-03-20T05:03:12.261Z,63.78
2019-03-20T05:03:48.099Z,65.14
2019-03-20T05:04:24.134Z,66.07
2019-03-20T05:05:00.052Z,66.89
2019-03-20T05:05:35.921Z,67.81
2019-03-20T05:06:11.811Z,68.49
2019-03-20T05:06:57.897Z,69.19
2019-03-20T05:07:25.347Z,69.41
2019-03-20T05:08:01.203Z,70.15
2019-03-20T05:08:37.079Z,70.60
2019-03-20T05:09:12.933Z,71.43
2019-03-20T05:09:48.859Z,71.41
2019-03-20T05:10:24.742Z,71.74
2019-03-20T05:11:00.603Z,71.23
2019-03-20T05:11:36.548Z,70.18
2019-03-20T05:12:12.432Z,69.66
2019-03-20T05:12:48.404Z,70.16
2019-03-20T05:13:24.251Z,70.92
2019-03-20T05:14:00.120Z,72.20
2019-03-20T05:14:36.065Z,73.30
2019-03-20T05:15:12.218Z,72.99
2019-03-20T05:15:48.079Z,73.40
2019-03-20T05:16:23.971Z,73.40
2019-03-20T05:16:59.862Z,73.96
2019-03-20T05:17:35.742Z,75.30
2019-03-20T05:18:11.616Z,75.66
2019-03-20T05:18:47.490Z,76.03
2019-03-20T05:19:23.382Z,76.03
2019-03-20T05:19:59.279Z,75.95
2019-03-20T05:20:35.186Z,75.95
2019-03-20T05:21:11.052Z,76.36
2019-03-20T05:21:47.079Z,76.60
2019-03-20T05:22:22.992Z,77.12
2019-03-20T05:22:58.862Z,77.43
2019-03-20T05:23:34.745Z,77.46
2019-03-20T05:24:10.704Z,77.54
2019-03-20T05:24:46.676Z,77.72
2019-03-20T05:25:22.647Z,77.97
2019-03-20T05:25:58.530Z,78.26
2019-03-20T05:26:34.394Z,78.58
2019-03-20T05:27:10.272Z,78.84
2019-03-20T05:27:46.100Z,79.17
2019-03-20T05:28:22.099Z,79.38
2019-03-20T05:28:58.001Z,80.55
2019-03-20T05:29:33.884Z,80.58
2019-03-20T05:30:10.284Z,80.25
2019-03-20T05:30:46.158Z,80.17
2019-03-20T05:31:22.031Z,80.08
2019-03-20T05:31:58.024Z,80.10
2019-03-20T05:32:33.913Z,80.19
2019-03-20T05:33:09.770Z,80.27
2019-03-20T05:33:45.642Z,80.26
2019-03-20T05:34:21.666Z,80.22
2019-03-20T05:34:57.534Z,80.20
2019-03-20T05:35:33.400Z,80.21
2019-03-20T05:36:09.238Z,80.08
2019-03-20T05:36:45.128Z,80.03
2019-03-20T05:37:20.960Z,79.84
2019-03-20T05:37:56.820Z,79.65
2019-03-20T05:38:32.658Z,79.82
2019-03-20T05:39:09.894Z,79.95
2019-03-20T05:39:45.815Z,80.28
2019-03-20T05:40:21.701Z,80.89
2019-03-20T05:40:57.752Z,80.89
2019-03-20T05:41:33.623Z,80.48
2019-03-20T05:42:09.497Z,80.49
2019-03-20T05:42:45.453Z,80.49
2019-03-20T05:43:21.287Z,80.08
2019-03-20T05:43:57.155Z,79.91
2019-03-20T05:44:33.005Z,79.83
2019-03-20T05:45:09.936Z,79.82
2019-03-20T05:45:45.856Z,79.70
2019-03-20T05:46:21.717Z,79.72
2019-03-20T05:46:57.608Z,79.10
2019-03-20T05:47:33.501Z,79.95
2019-03-20T05:48:09.353Z,79.00
2019-03-20T05:48:45.234Z,79.00
2019-03-20T05:49:21.126Z,79.44
2019-03-20T05:49:57.013Z,79.44
2019-03-20T05:50:32.877Z,79.17
2019-03-20T05:51:08.878Z,78.79
2019-03-20T05:51:44.753Z,78.79
2019-03-20T05:52:20.637Z,78.97
2019-03-20T05:52:56.493Z,78.89
2019-03-20T05:53:32.430Z,78.35
2019-03-20T05:54:08.411Z,78.35
2019-03-20T05:54:44.284Z,78.48
2019-03-20T05:55:20.175Z,78.60
2019-03-20T05:55:56.086Z,78.60
2019-03-20T05:56:32.079Z,78.83
2019-03-20T05:57:08.088Z,78.75
2019-03-20T05:57:43.953Z,79.01
2019-03-20T05:58:19.825Z,79.01
2019-03-20T05:58:55.831Z,78.55
2019-03-20T05:59:31.681Z,78.24
2019-03-20T06:00:11.371Z,78.42
2019-03-20T06:00:47.217Z,78.58
2019-03-20T06:01:23.207Z,78.69
2019-03-20T06:01:59.068Z,77.71
2019-03-20T06:02:34.955Z,77.71
2019-03-20T06:03:10.819Z,78.47
2019-03-20T06:03:46.866Z,78.47
2019-03-20T06:04:22.811Z,78.48
2019-03-20T06:04:58.875Z,78.04
2019-03-20T06:05:34.760Z,77.67
2019-03-20T06:06:10.582Z,77.55
2019-03-20T06:06:46.444Z,77.42
2019-03-20T06:07:22.308Z,77.29
2019-03-20T06:07:58.178Z,76.43
2019-03-20T06:08:34.143Z,76.43
2019-03-20T06:09:10.343Z,76.70
2019-03-20T06:09:46.165Z,76.73
2019-03-20T06:10:22.058Z,76.62
2019-03-20T06:10:57.931Z,76.66
2019-03-20T06:11:33.788Z,76.95
2019-03-20T06:12:09.623Z,77.19
2019-03-20T06:12:45.515Z,76.80
2019-03-20T06:13:21.329Z,76.59
2019-03-20T06:13:57.321Z,76.30
2019-03-20T06:14:33.342Z,76.03
2019-03-20T06:15:09.657Z,75.41
2019-03-20T06:15:45.495Z,75.51
2019-03-20T06:16:21.327Z,75.54
2019-03-20T06:16:57.302Z,75.46
2019-03-20T06:17:33.206Z,75.52
2019-03-20T06:18:09.106Z,75.60
2019-03-20T06:18:44.992Z,75.54
2019-03-20T06:19:20.902Z,75.49
2019-03-20T06:19:56.794Z,75.54
2019-03-20T06:20:33.823Z,75.50
2019-03-20T06:21:09.964Z,75.61
2019-03-20T06:21:45.834Z,75.41
2019-03-20T06:22:22.654Z,75.29
2019-03-20T06:22:58.620Z,75.24
2019-03-20T06:23:34.517Z,75.59
2019-03-20T06:24:10.451Z,75.57
2019-03-20T06:24:46.409Z,75.45
2019-03-20T06:25:22.375Z,76.05
2019-03-20T06:25:58.243Z,75.85
2019-03-20T06:26:34.102Z,75.75
2019-03-20T06:27:09.959Z,75.54
2019-03-20T06:27:45.867Z,75.42
2019-03-20T06:28:21.708Z,75.32
2019-03-20T06:28:57.664Z,75.02
2019-03-20T06:29:33.533Z,74.70
2019-03-20T06:30:11.097Z,74.50
2019-03-20T06:30:46.988Z,74.47
2019-03-20T06:31:22.925Z,74.34
2019-03-20T06:31:58.811Z,74.12
2019-03-20T06:32:34.673Z,74.02
2019-03-20T06:33:10.651Z,73.46
2019-03-20T06:33:46.602Z,73.44
2019-03-20T06:34:22.444Z,73.44
2019-03-20T06:34:58.345Z,73.33
2019-03-20T06:35:34.286Z,73.58
2019-03-20T06:36:10.134Z,73.65
2019-03-20T06:36:46.093Z,73.46
2019-03-20T06:37:31.982Z,73.21
2019-03-20T06:37:59.764Z,72.89
2019-03-20T06:38:35.623Z,72.37
2019-03-20T06:39:11.489Z,72.20
2019-03-20T06:39:47.400Z,72.03
2019-03-20T06:40:23.269Z,71.87
2019-03-20T06:40:59.141Z,71.61
2019-03-20T06:41:35.037Z,71.36
2019-03-20T06:42:10.947Z,71.54
2019-03-20T06:42:46.899Z,70.84
2019-03-20T06:43:22.749Z,70.73
2019-03-20T06:43:58.713Z,70.78
2019-03-20T06:44:34.545Z,70.82
2019-03-20T06:45:11.242Z,70.81
2019-03-20T06:45:47.236Z,70.80
2019-03-20T06:46:23.099Z,71.16
2019-03-20T06:46:59.090Z,70.76
2019-03-20T06:47:34.982Z,70.53
2019-03-20T06:48:10.844Z,70.35
2019-03-20T06:48:46.729Z,70.14
2019-03-20T06:49:22.644Z,69.93
2019-03-20T06:49:58.504Z,69.74
2019-03-20T06:50:34.367Z,69.37
2019-03-20T06:51:10.428Z,69.12
2019-03-20T06:51:46.334Z,68.84
2019-03-20T06:52:22.209Z,68.00
2019-03-20T06:52:58.050Z,67.77
2019-03-20T06:53:33.874Z,67.35
2019-03-20T06:54:09.695Z,67.12
2019-03-20T06:54:45.530Z,66.90
2019-03-20T06:55:21.509Z,66.99
2019-03-20T06:55:57.352Z,66.21
2019-03-20T06:56:33.233Z,64.82
2019-03-20T06:57:09.095Z,64.51
2019-03-20T06:57:45.094Z,64.21
2019-03-20T06:58:20.927Z,63.74
2019-03-20T06:59:34.784Z,63.61
2019-03-20T07:00:47.748Z,63.81
2019-03-20T07:01:29.458Z,64.06
2019-03-20T07:02:05.866Z,62.34
2019-03-20T07:02:44.595Z,62.03
2019-03-20T07:03:30.282Z,61.63
2019-03-20T07:04:14.926Z,61.22
2019-03-20T07:05:00.726Z,61.04
2019-03-20T07:06:02.773Z,60.80
2019-03-20T07:07:02.909Z,60.53
2019-03-20T07:07:44.271Z,60.42
2019-03-20T07:08:18.403Z,60.46
2019-03-20T07:08:58.126Z,60.43
2019-03-20T07:10:04.015Z,59.62
2019-03-20T07:11:02.307Z,59.25
2019-03-20T07:11:41.552Z,59.36
2019-03-20T07:12:17.543Z,59.32
2019-03-20T07:12:53.421Z,58.89
2019-03-20T07:13:29.255Z,58.48
2019-03-20T07:14:05.116Z,58.13
2019-03-20T07:14:41.081Z,57.54
2019-03-20T07:15:17.035Z,57.08
2019-03-20T07:15:52.877Z,57.07
2019-03-20T07:16:28.720Z,57.04
2019-03-20T07:17:04.778Z,57.08
2019-03-20T07:17:40.750Z,57.42
2019-03-20T07:18:16.612Z,57.72
2019-03-20T07:18:52.522Z,57.87
2019-03-20T07:19:28.499Z,58.13
2019-03-20T07:20:04.564Z,58.19
2019-03-20T07:20:40.452Z,58.17
2019-03-20T07:21:18.653Z,58.70
2019-03-20T07:21:54.001Z,58.75
2019-03-20T07:22:29.999Z,58.24
2019-03-20T07:23:05.864Z,58.10
2019-03-20T07:23:41.712Z,58.55
2019-03-20T07:24:17.583Z,58.88
2019-03-20T07:24:53.390Z,58.92
2019-03-20T07:25:29.185Z,59.18
2019-03-20T07:26:05.232Z,59.16
2019-03-20T07:26:41.802Z,59.31
2019-03-20T07:27:17.777Z,59.94
2019-03-20T07:27:53.619Z,59.97
2019-03-20T07:28:29.506Z,60.26
2019-03-20T07:29:05.418Z,60.46
2019-03-20T07:29:41.894Z,60.40
2019-03-20T07:30:17.921Z,59.97
2019-03-20T07:30:53.829Z,60.41
2019-03-20T07:31:29.703Z,60.58
2019-03-20T07:32:05.690Z,60.64
2019-03-20T07:32:41.520Z,60.93
2019-03-20T07:33:17.395Z,61.52
2019-03-20T07:33:53.429Z,61.60
2019-03-20T07:34:29.435Z,61.74
2019-03-20T07:35:05.460Z,61.80
2019-03-20T07:35:41.481Z,61.86
2019-03-20T07:36:17.330Z,62.06
2019-03-20T07:36:53.197Z,61.84
2019-03-20T07:37:29.044Z,61.49
2019-03-20T07:38:04.885Z,61.41
2019-03-20T07:38:40.724Z,60.67
2019-03-20T07:39:16.702Z,60.45
2019-03-20T07:39:52.601Z,60.11
2019-03-20T07:40:28.468Z,59.58
2019-03-20T07:41:04.488Z,59.35
2019-03-20T07:41:40.355Z,59.25
2019-03-20T07:42:16.205Z,59.22
2019-03-20T07:42:52.055Z,59.05
2019-03-20T07:43:27.906Z,58.74
2019-03-20T07:44:03.774Z,58.03
2019-03-20T07:44:39.731Z,57.75
2019-03-20T07:45:15.620Z,57.53
2019-03-20T07:45:51.461Z,57.37
2019-03-20T07:46:27.489Z,57.26
2019-03-20T07:47:03.293Z,57.39
2019-03-20T07:47:39.165Z,58.14